sensor_id;sensor_type;location;lat;lon;timestamp;P1;durP1;ratioP1;P2;durP2;ratioP2
57071;SDS011;42956;51.366;11.298;2022-08-30T00:00:21;4.43;;;3.25;;
57071;SDS011;42956;51.366;11.298;2022-08-30T00:03:06;6.22;;;3.22;;
57071;SDS011;42956;51.366;11.298;2022-08-30T00:05:35;5.15;;;3.20;;
57071;SDS011;42956;51.366;11.298;2022-08-30T00:08:03;6.32;;;2.58;;
57071;SDS011;42956;51.366;11.298;2022-08-30T00:10:32;6.78;;;3.05;;
57071;SDS011;42956;51.366;11.298;2022-08-30T00:13:00;4.55;;;2.97;;
57071;SDS011;42956;51.366;11.298;2022-08-30T00:15:28;8.23;;;3.25;;
57071;SDS011;42956;51.366;11.298;2022-08-30T00:17:56;6.53;;;3.58;;
57071;SDS011;42956;51.366;11.298;2022-08-30T00:20:26;3.55;;;2.85;;
57071;SDS011;42956;51.366;11.298;2022-08-30T00:22:54;8.63;;;2.90;;
57071;SDS011;42956;51.366;11.298;2022-08-30T00:25:22;7.90;;;2.78;;
57071;SDS011;42956;51.366;11.298;2022-08-30T00:27:51;4.70;;;2.70;;
57071;SDS011;42956;51.366;11.298;2022-08-30T00:30:19;3.83;;;2.40;;
57071;SDS011;42956;51.366;11.298;2022-08-30T00:32:47;4.07;;;2.47;;
57071;SDS011;42956;51.366;11.298;2022-08-30T00:35:16;5.60;;;2.47;;
57071;SDS011;42956;51.366;11.298;2022-08-30T00:37:46;5.50;;;3.05;;
57071;SDS011;42956;51.366;11.298;2022-08-30T00:40:13;6.45;;;3.15;;
57071;SDS011;42956;51.366;11.298;2022-08-30T00:42:42;8.90;;;3.22;;
57071;SDS011;42956;51.366;11.298;2022-08-30T00:45:19;4.88;;;3.63;;
57071;SDS011;42956;51.366;11.298;2022-08-30T00:47:47;11.30;;;3.75;;
57071;SDS011;42956;51.366;11.298;2022-08-30T00:50:15;4.97;;;3.55;;
57071;SDS011;42956;51.366;11.298;2022-08-30T00:52:45;7.43;;;4.03;;
57071;SDS011;42956;51.366;11.298;2022-08-30T00:55:14;7.88;;;3.90;;
57071;SDS011;42956;51.366;11.298;2022-08-30T00:57:44;4.10;;;3.22;;
57071;SDS011;42956;51.366;11.298;2022-08-30T01:00:14;7.03;;;3.38;;
57071;SDS011;42956;51.366;11.298;2022-08-30T01:02:43;4.80;;;3.42;;
57071;SDS011;42956;51.366;11.298;2022-08-30T01:05:14;3.72;;;2.28;;
57071;SDS011;42956;51.366;11.298;2022-08-30T01:07:42;4.18;;;2.80;;
57071;SDS011;42956;51.366;11.298;2022-08-30T01:10:11;3.72;;;2.38;;
57071;SDS011;42956;51.366;11.298;2022-08-30T01:12:40;4.63;;;2.20;;
57071;SDS011;42956;51.366;11.298;2022-08-30T01:15:09;3.83;;;2.13;;
57071;SDS011;42956;51.366;11.298;2022-08-30T01:17:38;3.97;;;2.10;;
57071;SDS011;42956;51.366;11.298;2022-08-30T01:20:12;6.20;;;2.08;;
57071;SDS011;42956;51.366;11.298;2022-08-30T01:22:41;4.90;;;2.20;;
57071;SDS011;42956;51.366;11.298;2022-08-30T01:25:15;2.08;;;1.73;;
57071;SDS011;42956;51.366;11.298;2022-08-30T01:27:45;2.97;;;2.28;;
57071;SDS011;42956;51.366;11.298;2022-08-30T01:30:14;5.97;;;2.72;;
57071;SDS011;42956;51.366;11.298;2022-08-30T01:32:42;7.93;;;2.13;;
57071;SDS011;42956;51.366;11.298;2022-08-30T01:35:11;4.75;;;2.28;;
57071;SDS011;42956;51.366;11.298;2022-08-30T01:37:39;3.72;;;2.45;;
57071;SDS011;42956;51.366;11.298;2022-08-30T01:40:08;3.88;;;2.35;;
57071;SDS011;42956;51.366;11.298;2022-08-30T01:42:37;5.40;;;1.98;;
57071;SDS011;42956;51.366;11.298;2022-08-30T01:45:06;2.63;;;2.10;;
57071;SDS011;42956;51.366;11.298;2022-08-30T01:47:34;6.60;;;2.50;;
57071;SDS011;42956;51.366;11.298;2022-08-30T01:50:02;4.10;;;2.03;;
57071;SDS011;42956;51.366;11.298;2022-08-30T01:52:30;5.43;;;2.38;;
57071;SDS011;42956;51.366;11.298;2022-08-30T01:54:58;3.85;;;2.47;;
57071;SDS011;42956;51.366;11.298;2022-08-30T01:57:26;4.32;;;2.13;;
57071;SDS011;42956;51.366;11.298;2022-08-30T01:59:55;2.55;;;2.35;;
57071;SDS011;42956;51.366;11.298;2022-08-30T02:02:24;5.75;;;2.13;;
57071;SDS011;42956;51.366;11.298;2022-08-30T02:04:53;3.50;;;2.13;;
57071;SDS011;42956;51.366;11.298;2022-08-30T02:07:24;3.60;;;2.42;;
57071;SDS011;42956;51.366;11.298;2022-08-30T02:09:52;3.45;;;2.88;;
57071;SDS011;42956;51.366;11.298;2022-08-30T02:12:20;3.92;;;2.10;;
57071;SDS011;42956;51.366;11.298;2022-08-30T02:14:48;6.13;;;1.90;;
57071;SDS011;42956;51.366;11.298;2022-08-30T02:17:17;4.85;;;2.28;;
57071;SDS011;42956;51.366;11.298;2022-08-30T02:19:46;10.95;;;3.15;;
57071;SDS011;42956;51.366;11.298;2022-08-30T02:22:14;7.10;;;3.28;;
57071;SDS011;42956;51.366;11.298;2022-08-30T02:24:42;9.30;;;2.45;;
57071;SDS011;42956;51.366;11.298;2022-08-30T02:27:10;3.75;;;2.40;;
57071;SDS011;42956;51.366;11.298;2022-08-30T02:29:38;10.30;;;2.42;;
57071;SDS011;42956;51.366;11.298;2022-08-30T02:32:06;4.10;;;2.28;;
57071;SDS011;42956;51.366;11.298;2022-08-30T02:34:35;3.38;;;2.10;;
57071;SDS011;42956;51.366;11.298;2022-08-30T02:37:03;3.00;;;2.20;;
57071;SDS011;42956;51.366;11.298;2022-08-30T02:39:32;5.00;;;2.00;;
57071;SDS011;42956;51.366;11.298;2022-08-30T02:42:00;3.20;;;1.60;;
57071;SDS011;42956;51.366;11.298;2022-08-30T02:44:28;2.33;;;1.83;;
57071;SDS011;42956;51.366;11.298;2022-08-30T02:46:56;1.98;;;1.75;;
57071;SDS011;42956;51.366;11.298;2022-08-30T02:49:24;4.60;;;2.15;;
57071;SDS011;42956;51.366;11.298;2022-08-30T02:52:02;3.75;;;2.60;;
57071;SDS011;42956;51.366;11.298;2022-08-30T02:54:30;10.23;;;3.25;;
57071;SDS011;42956;51.366;11.298;2022-08-30T02:56:59;10.10;;;3.08;;
57071;SDS011;42956;51.366;11.298;2022-08-30T02:59:30;6.85;;;3.58;;
57071;SDS011;42956;51.366;11.298;2022-08-30T03:01:58;4.65;;;3.17;;
57071;SDS011;42956;51.366;11.298;2022-08-30T03:04:26;5.97;;;3.88;;
57071;SDS011;42956;51.366;11.298;2022-08-30T03:06:54;9.52;;;3.88;;
57071;SDS011;42956;51.366;11.298;2022-08-30T03:09:24;6.38;;;3.40;;
57071;SDS011;42956;51.366;11.298;2022-08-30T03:11:52;5.22;;;3.42;;
57071;SDS011;42956;51.366;11.298;2022-08-30T03:14:19;5.63;;;3.92;;
57071;SDS011;42956;51.366;11.298;2022-08-30T03:16:47;6.63;;;3.63;;
57071;SDS011;42956;51.366;11.298;2022-08-30T03:19:15;6.07;;;3.08;;
57071;SDS011;42956;51.366;11.298;2022-08-30T03:21:43;4.32;;;2.30;;
57071;SDS011;42956;51.366;11.298;2022-08-30T03:24:11;8.38;;;4.22;;
57071;SDS011;42956;51.366;11.298;2022-08-30T03:26:41;5.70;;;3.28;;
57071;SDS011;42956;51.366;11.298;2022-08-30T03:29:12;6.30;;;3.30;;
57071;SDS011;42956;51.366;11.298;2022-08-30T03:31:40;11.20;;;4.20;;
57071;SDS011;42956;51.366;11.298;2022-08-30T03:34:19;6.53;;;3.92;;
57071;SDS011;42956;51.366;11.298;2022-08-30T03:36:48;6.32;;;4.18;;
57071;SDS011;42956;51.366;11.298;2022-08-30T03:39:15;5.75;;;4.22;;
57071;SDS011;42956;51.366;11.298;2022-08-30T03:41:45;7.05;;;3.97;;
57071;SDS011;42956;51.366;11.298;2022-08-30T03:44:12;6.18;;;4.15;;
57071;SDS011;42956;51.366;11.298;2022-08-30T03:46:40;9.07;;;4.93;;
57071;SDS011;42956;51.366;11.298;2022-08-30T03:49:08;7.93;;;4.97;;
57071;SDS011;42956;51.366;11.298;2022-08-30T03:51:36;12.98;;;4.90;;
57071;SDS011;42956;51.366;11.298;2022-08-30T03:54:04;8.98;;;5.13;;
57071;SDS011;42956;51.366;11.298;2022-08-30T03:56:32;7.80;;;5.40;;
57071;SDS011;42956;51.366;11.298;2022-08-30T03:59:02;6.93;;;4.55;;
57071;SDS011;42956;51.366;11.298;2022-08-30T04:01:30;8.02;;;5.10;;
57071;SDS011;42956;51.366;11.298;2022-08-30T04:03:58;13.73;;;5.32;;
57071;SDS011;42956;51.366;11.298;2022-08-30T04:06:26;7.40;;;4.90;;
57071;SDS011;42956;51.366;11.298;2022-08-30T04:08:54;9.55;;;5.18;;
57071;SDS011;42956;51.366;11.298;2022-08-30T04:11:22;13.68;;;5.00;;
57071;SDS011;42956;51.366;11.298;2022-08-30T04:13:50;9.60;;;5.13;;
57071;SDS011;42956;51.366;11.298;2022-08-30T04:16:20;7.72;;;5.55;;
57071;SDS011;42956;51.366;11.298;2022-08-30T04:18:48;8.63;;;4.85;;
57071;SDS011;42956;51.366;11.298;2022-08-30T04:21:16;8.27;;;5.57;;
57071;SDS011;42956;51.366;11.298;2022-08-30T04:23:44;8.13;;;4.50;;
57071;SDS011;42956;51.366;11.298;2022-08-30T04:26:13;8.32;;;5.15;;
57071;SDS011;42956;51.366;11.298;2022-08-30T04:28:41;9.25;;;4.97;;
57071;SDS011;42956;51.366;11.298;2022-08-30T04:31:10;6.85;;;4.55;;
57071;SDS011;42956;51.366;11.298;2022-08-30T04:33:42;11.85;;;4.90;;
57071;SDS011;42956;51.366;11.298;2022-08-30T04:36:10;7.20;;;5.45;;
57071;SDS011;42956;51.366;11.298;2022-08-30T04:38:39;13.10;;;5.65;;
57071;SDS011;42956;51.366;11.298;2022-08-30T04:41:08;9.93;;;4.57;;
57071;SDS011;42956;51.366;11.298;2022-08-30T04:43:37;10.07;;;5.95;;
57071;SDS011;42956;51.366;11.298;2022-08-30T04:46:05;8.38;;;5.55;;
57071;SDS011;42956;51.366;11.298;2022-08-30T04:48:34;7.93;;;4.50;;
57071;SDS011;42956;51.366;11.298;2022-08-30T04:51:04;9.15;;;5.03;;
57071;SDS011;42956;51.366;11.298;2022-08-30T04:53:33;5.82;;;5.20;;
57071;SDS011;42956;51.366;11.298;2022-08-30T04:56:05;7.72;;;5.38;;
57071;SDS011;42956;51.366;11.298;2022-08-30T04:58:33;6.63;;;4.47;;
57071;SDS011;42956;51.366;11.298;2022-08-30T05:01:01;8.75;;;5.55;;
57071;SDS011;42956;51.366;11.298;2022-08-30T05:03:30;12.45;;;5.10;;
57071;SDS011;42956;51.366;11.298;2022-08-30T05:05:58;10.68;;;4.28;;
57071;SDS011;42956;51.366;11.298;2022-08-30T05:08:27;8.07;;;5.10;;
57071;SDS011;42956;51.366;11.298;2022-08-30T05:10:54;8.30;;;4.72;;
57071;SDS011;42956;51.366;11.298;2022-08-30T05:13:23;12.18;;;5.05;;
57071;SDS011;42956;51.366;11.298;2022-08-30T05:16:01;9.38;;;5.05;;
57071;SDS011;42956;51.366;11.298;2022-08-30T05:18:29;8.25;;;4.65;;
57071;SDS011;42956;51.366;11.298;2022-08-30T05:21:04;6.88;;;4.85;;
57071;SDS011;42956;51.366;11.298;2022-08-30T05:23:33;11.10;;;4.57;;
57071;SDS011;42956;51.366;11.298;2022-08-30T05:26:03;9.73;;;4.60;;
57071;SDS011;42956;51.366;11.298;2022-08-30T05:28:32;7.20;;;4.22;;
57071;SDS011;42956;51.366;11.298;2022-08-30T05:31:00;8.55;;;4.78;;
57071;SDS011;42956;51.366;11.298;2022-08-30T05:33:28;7.00;;;5.25;;
57071;SDS011;42956;51.366;11.298;2022-08-30T05:36:04;12.50;;;5.13;;
57071;SDS011;42956;51.366;11.298;2022-08-30T05:38:33;7.28;;;5.00;;
57071;SDS011;42956;51.366;11.298;2022-08-30T05:41:02;7.40;;;5.30;;
57071;SDS011;42956;51.366;11.298;2022-08-30T05:43:36;9.45;;;5.22;;
57071;SDS011;42956;51.366;11.298;2022-08-30T05:46:05;9.88;;;5.50;;
57071;SDS011;42956;51.366;11.298;2022-08-30T05:48:34;13.15;;;5.05;;
57071;SDS011;42956;51.366;11.298;2022-08-30T05:51:06;15.95;;;5.30;;
57071;SDS011;42956;51.366;11.298;2022-08-30T05:53:35;7.43;;;4.85;;
57071;SDS011;42956;51.366;11.298;2022-08-30T05:56:04;9.60;;;6.07;;
57071;SDS011;42956;51.366;11.298;2022-08-30T05:58:33;8.82;;;5.18;;
57071;SDS011;42956;51.366;11.298;2022-08-30T06:01:01;11.57;;;4.97;;
57071;SDS011;42956;51.366;11.298;2022-08-30T06:03:29;10.27;;;4.30;;
57071;SDS011;42956;51.366;11.298;2022-08-30T06:05:58;12.70;;;4.53;;
57071;SDS011;42956;51.366;11.298;2022-08-30T06:08:26;10.50;;;5.13;;
57071;SDS011;42956;51.366;11.298;2022-08-30T06:10:55;14.43;;;4.75;;
57071;SDS011;42956;51.366;11.298;2022-08-30T06:13:23;10.13;;;5.05;;
57071;SDS011;42956;51.366;11.298;2022-08-30T06:15:51;15.27;;;5.18;;
57071;SDS011;42956;51.366;11.298;2022-08-30T06:18:19;14.52;;;5.82;;
57071;SDS011;42956;51.366;11.298;2022-08-30T06:20:54;8.40;;;4.82;;
57071;SDS011;42956;51.366;11.298;2022-08-30T06:23:22;8.23;;;4.70;;
57071;SDS011;42956;51.366;11.298;2022-08-30T06:25:50;8.65;;;4.85;;
57071;SDS011;42956;51.366;11.298;2022-08-30T06:28:19;10.70;;;5.18;;
57071;SDS011;42956;51.366;11.298;2022-08-30T06:30:47;16.33;;;6.15;;
57071;SDS011;42956;51.366;11.298;2022-08-30T06:33:15;13.60;;;7.32;;
57071;SDS011;42956;51.366;11.298;2022-08-30T06:35:43;11.68;;;8.23;;
57071;SDS011;42956;51.366;11.298;2022-08-30T06:38:25;16.75;;;9.60;;
57071;SDS011;42956;51.366;11.298;2022-08-30T06:40:53;15.65;;;9.35;;
57071;SDS011;42956;51.366;11.298;2022-08-30T06:43:22;16.55;;;8.70;;
57071;SDS011;42956;51.366;11.298;2022-08-30T06:45:50;14.93;;;8.75;;
57071;SDS011;42956;51.366;11.298;2022-08-30T06:48:18;19.88;;;10.10;;
57071;SDS011;42956;51.366;11.298;2022-08-30T06:50:51;19.50;;;12.27;;
57071;SDS011;42956;51.366;11.298;2022-08-30T06:53:19;18.02;;;11.23;;
57071;SDS011;42956;51.366;11.298;2022-08-30T06:55:53;22.52;;;12.10;;
57071;SDS011;42956;51.366;11.298;2022-08-30T06:58:22;17.67;;;10.63;;
57071;SDS011;42956;51.366;11.298;2022-08-30T07:00:51;18.65;;;11.98;;
57071;SDS011;42956;51.366;11.298;2022-08-30T07:03:19;18.80;;;11.75;;
57071;SDS011;42956;51.366;11.298;2022-08-30T07:05:47;17.02;;;12.77;;
57071;SDS011;42956;51.366;11.298;2022-08-30T07:08:15;18.38;;;12.77;;
57071;SDS011;42956;51.366;11.298;2022-08-30T07:10:43;17.17;;;12.25;;
57071;SDS011;42956;51.366;11.298;2022-08-30T07:13:11;19.30;;;12.52;;
57071;SDS011;42956;51.366;11.298;2022-08-30T07:15:41;20.70;;;13.00;;
57071;SDS011;42956;51.366;11.298;2022-08-30T07:18:10;19.38;;;12.93;;
57071;SDS011;42956;51.366;11.298;2022-08-30T07:20:55;15.77;;;11.52;;
57071;SDS011;42956;51.366;11.298;2022-08-30T07:23:24;18.17;;;12.27;;
57071;SDS011;42956;51.366;11.298;2022-08-30T07:25:51;18.92;;;13.55;;
57071;SDS011;42956;51.366;11.298;2022-08-30T07:28:20;19.48;;;12.75;;
57071;SDS011;42956;51.366;11.298;2022-08-30T07:30:49;20.50;;;12.40;;
57071;SDS011;42956;51.366;11.298;2022-08-30T07:33:17;16.77;;;11.98;;
57071;SDS011;42956;51.366;11.298;2022-08-30T07:35:45;17.92;;;13.32;;
57071;SDS011;42956;51.366;11.298;2022-08-30T07:38:13;20.90;;;13.13;;
57071;SDS011;42956;51.366;11.298;2022-08-30T07:40:41;16.10;;;12.25;;
57071;SDS011;42956;51.366;11.298;2022-08-30T07:43:09;18.27;;;11.85;;
57071;SDS011;42956;51.366;11.298;2022-08-30T07:45:37;16.55;;;11.65;;
57071;SDS011;42956;51.366;11.298;2022-08-30T07:48:06;18.60;;;11.82;;
57071;SDS011;42956;51.366;11.298;2022-08-30T07:50:37;23.73;;;13.50;;
57071;SDS011;42956;51.366;11.298;2022-08-30T07:53:05;18.33;;;11.80;;
57071;SDS011;42956;51.366;11.298;2022-08-30T07:55:37;14.10;;;11.20;;
57071;SDS011;42956;51.366;11.298;2022-08-30T07:58:04;17.85;;;12.35;;
57071;SDS011;42956;51.366;11.298;2022-08-30T08:00:32;15.77;;;12.95;;
57071;SDS011;42956;51.366;11.298;2022-08-30T08:03:03;16.98;;;11.55;;
57071;SDS011;42956;51.366;11.298;2022-08-30T08:05:36;16.85;;;11.15;;
57071;SDS011;42956;51.366;11.298;2022-08-30T08:10:32;17.77;;;10.32;;
57071;SDS011;42956;51.366;11.298;2022-08-30T08:13:00;11.88;;;9.70;;
57071;SDS011;42956;51.366;11.298;2022-08-30T08:15:28;13.13;;;9.60;;
57071;SDS011;42956;51.366;11.298;2022-08-30T08:17:56;14.43;;;9.93;;
57071;SDS011;42956;51.366;11.298;2022-08-30T08:20:24;11.40;;;8.95;;
57071;SDS011;42956;51.366;11.298;2022-08-30T08:22:54;11.75;;;9.95;;
57071;SDS011;42956;51.366;11.298;2022-08-30T08:25:21;11.43;;;9.18;;
57071;SDS011;42956;51.366;11.298;2022-08-30T08:27:50;8.85;;;7.90;;
57071;SDS011;42956;51.366;11.298;2022-08-30T08:30:19;10.93;;;9.00;;
57071;SDS011;42956;51.366;11.298;2022-08-30T08:32:47;13.48;;;9.80;;
57071;SDS011;42956;51.366;11.298;2022-08-30T08:35:15;12.82;;;10.13;;
57071;SDS011;42956;51.366;11.298;2022-08-30T08:37:43;10.57;;;8.32;;
57071;SDS011;42956;51.366;11.298;2022-08-30T08:40:14;12.27;;;8.52;;
57071;SDS011;42956;51.366;11.298;2022-08-30T08:42:47;15.05;;;8.90;;
57071;SDS011;42956;51.366;11.298;2022-08-30T08:45:18;14.82;;;10.48;;
57071;SDS011;42956;51.366;11.298;2022-08-30T08:50:18;15.20;;;9.75;;
57071;SDS011;42956;51.366;11.298;2022-08-30T08:52:48;13.43;;;8.63;;
57071;SDS011;42956;51.366;11.298;2022-08-30T08:55:44;11.32;;;8.60;;
57071;SDS011;42956;51.366;11.298;2022-08-30T08:58:16;13.43;;;8.13;;
57071;SDS011;42956;51.366;11.298;2022-08-30T09:00:46;13.20;;;8.43;;
57071;SDS011;42956;51.366;11.298;2022-08-30T09:03:13;15.63;;;8.10;;
57071;SDS011;42956;51.366;11.298;2022-08-30T09:05:42;10.80;;;8.43;;
57071;SDS011;42956;51.366;11.298;2022-08-30T09:08:12;10.85;;;7.93;;
57071;SDS011;42956;51.366;11.298;2022-08-30T09:10:40;9.20;;;6.88;;
57071;SDS011;42956;51.366;11.298;2022-08-30T09:13:18;9.07;;;7.70;;
57071;SDS011;42956;51.366;11.298;2022-08-30T09:15:49;22.25;;;8.20;;
57071;SDS011;42956;51.366;11.298;2022-08-30T09:18:38;14.07;;;7.72;;
57071;SDS011;42956;51.366;11.298;2022-08-30T09:21:11;13.27;;;8.68;;
57071;SDS011;42956;51.366;11.298;2022-08-30T09:23:45;11.00;;;7.78;;
57071;SDS011;42956;51.366;11.298;2022-08-30T09:26:14;10.82;;;7.65;;
57071;SDS011;42956;51.366;11.298;2022-08-30T09:28:46;13.75;;;7.70;;
57071;SDS011;42956;51.366;11.298;2022-08-30T09:31:16;15.65;;;7.32;;
57071;SDS011;42956;51.366;11.298;2022-08-30T09:33:52;13.90;;;8.05;;
57071;SDS011;42956;51.366;11.298;2022-08-30T09:36:21;12.35;;;7.43;;
57071;SDS011;42956;51.366;11.298;2022-08-30T09:38:59;11.52;;;6.97;;
57071;SDS011;42956;51.366;11.298;2022-08-30T09:41:29;11.20;;;8.05;;
57071;SDS011;42956;51.366;11.298;2022-08-30T09:44:07;10.18;;;7.50;;
57071;SDS011;42956;51.366;11.298;2022-08-30T09:46:47;10.52;;;7.07;;
57071;SDS011;42956;51.366;11.298;2022-08-30T09:49:30;10.55;;;7.35;;
57071;SDS011;42956;51.366;11.298;2022-08-30T09:52:11;10.43;;;7.43;;
57071;SDS011;42956;51.366;11.298;2022-08-30T09:54:41;9.15;;;7.05;;
57071;SDS011;42956;51.366;11.298;2022-08-30T09:57:14;9.27;;;6.70;;
57071;SDS011;42956;51.366;11.298;2022-08-30T09:59:47;8.33;;;5.73;;
57071;SDS011;42956;51.366;11.298;2022-08-30T10:02:29;16.40;;;6.38;;
57071;SDS011;42956;51.366;11.298;2022-08-30T10:05:00;8.63;;;5.57;;
57071;SDS011;42956;51.366;11.298;2022-08-30T10:07:31;10.45;;;5.53;;
57071;SDS011;42956;51.366;11.298;2022-08-30T10:10:03;10.02;;;6.20;;
57071;SDS011;42956;51.366;11.298;2022-08-30T10:12:35;8.82;;;6.82;;
57071;SDS011;42956;51.366;11.298;2022-08-30T10:15:08;9.60;;;5.50;;
57071;SDS011;42956;51.366;11.298;2022-08-30T10:17:42;10.18;;;5.90;;
57071;SDS011;42956;51.366;11.298;2022-08-30T10:20:18;10.55;;;5.60;;
57071;SDS011;42956;51.366;11.298;2022-08-30T10:22:49;12.00;;;5.60;;
57071;SDS011;42956;51.366;11.298;2022-08-30T10:25:20;13.23;;;6.50;;
57071;SDS011;42956;51.366;11.298;2022-08-30T10:28:03;13.90;;;5.57;;
57071;SDS011;42956;51.366;11.298;2022-08-30T10:30:35;12.68;;;6.30;;
57071;SDS011;42956;51.366;11.298;2022-08-30T10:33:06;8.48;;;5.38;;
57071;SDS011;42956;51.366;11.298;2022-08-30T10:35:36;12.02;;;6.32;;
57071;SDS011;42956;51.366;11.298;2022-08-30T10:38:07;12.45;;;5.18;;
57071;SDS011;42956;51.366;11.298;2022-08-30T10:40:37;15.30;;;6.88;;
57071;SDS011;42956;51.366;11.298;2022-08-30T10:43:25;9.73;;;4.95;;
57071;SDS011;42956;51.366;11.298;2022-08-30T10:45:59;12.20;;;6.32;;
57071;SDS011;42956;51.366;11.298;2022-08-30T10:48:30;8.38;;;5.57;;
57071;SDS011;42956;51.366;11.298;2022-08-30T10:51:00;6.78;;;4.53;;
57071;SDS011;42956;51.366;11.298;2022-08-30T10:53:31;8.73;;;5.28;;
57071;SDS011;42956;51.366;11.298;2022-08-30T10:55:59;8.13;;;4.78;;
57071;SDS011;42956;51.366;11.298;2022-08-30T10:58:29;11.30;;;5.32;;
57071;SDS011;42956;51.366;11.298;2022-08-30T11:01:04;7.80;;;5.07;;
57071;SDS011;42956;51.366;11.298;2022-08-30T11:03:44;5.82;;;4.47;;
57071;SDS011;42956;51.366;11.298;2022-08-30T11:06:19;8.30;;;4.22;;
57071;SDS011;42956;51.366;11.298;2022-08-30T11:08:52;8.25;;;5.00;;
57071;SDS011;42956;51.366;11.298;2022-08-30T11:11:25;10.48;;;5.35;;
57071;SDS011;42956;51.366;11.298;2022-08-30T11:13:56;9.93;;;4.00;;
57071;SDS011;42956;51.366;11.298;2022-08-30T11:16:36;5.13;;;4.35;;
57071;SDS011;42956;51.366;11.298;2022-08-30T11:19:11;10.70;;;4.50;;
57071;SDS011;42956;51.366;11.298;2022-08-30T11:21:40;8.18;;;4.22;;
57071;SDS011;42956;51.366;11.298;2022-08-30T11:24:10;10.70;;;5.18;;
57071;SDS011;42956;51.366;11.298;2022-08-30T11:29:27;4.88;;;4.22;;
57071;SDS011;42956;51.366;11.298;2022-08-30T11:31:58;12.15;;;5.03;;
57071;SDS011;42956;51.366;11.298;2022-08-30T11:37:30;5.35;;;3.92;;
57071;SDS011;42956;51.366;11.298;2022-08-30T11:39:59;12.90;;;4.60;;
57071;SDS011;42956;51.366;11.298;2022-08-30T11:42:31;7.57;;;4.50;;
57071;SDS011;42956;51.366;11.298;2022-08-30T11:47:52;6.38;;;4.10;;
57071;SDS011;42956;51.366;11.298;2022-08-30T11:50:20;8.48;;;4.28;;
57071;SDS011;42956;51.366;11.298;2022-08-30T11:52:54;7.65;;;4.45;;
57071;SDS011;42956;51.366;11.298;2022-08-30T11:55:31;8.60;;;4.10;;
57071;SDS011;42956;51.366;11.298;2022-08-30T11:58:05;8.30;;;3.60;;
57071;SDS011;42956;51.366;11.298;2022-08-30T12:00:38;8.25;;;4.88;;
57071;SDS011;42956;51.366;11.298;2022-08-30T12:03:27;7.13;;;4.45;;
57071;SDS011;42956;51.366;11.298;2022-08-30T12:05:58;8.55;;;4.22;;
57071;SDS011;42956;51.366;11.298;2022-08-30T12:16:54;5.32;;;4.47;;
57071;SDS011;42956;51.366;11.298;2022-08-30T12:19:41;7.35;;;4.28;;
57071;SDS011;42956;51.366;11.298;2022-08-30T12:22:20;11.75;;;4.07;;
57071;SDS011;42956;51.366;11.298;2022-08-30T12:24:49;5.25;;;3.53;;
57071;SDS011;42956;51.366;11.298;2022-08-30T12:27:20;7.43;;;4.18;;
57071;SDS011;42956;51.366;11.298;2022-08-30T12:29:49;10.05;;;4.53;;
57071;SDS011;42956;51.366;11.298;2022-08-30T12:32:18;8.65;;;4.07;;
57071;SDS011;42956;51.366;11.298;2022-08-30T12:34:51;5.80;;;4.07;;
57071;SDS011;42956;51.366;11.298;2022-08-30T12:37:20;5.65;;;3.60;;
57071;SDS011;42956;51.366;11.298;2022-08-30T12:39:59;5.68;;;3.75;;
57071;SDS011;42956;51.366;11.298;2022-08-30T12:42:29;8.05;;;3.75;;
57071;SDS011;42956;51.366;11.298;2022-08-30T12:44:58;10.52;;;3.60;;
57071;SDS011;42956;51.366;11.298;2022-08-30T12:47:27;8.10;;;3.80;;
57071;SDS011;42956;51.366;11.298;2022-08-30T12:50:16;5.28;;;3.10;;
57071;SDS011;42956;51.366;11.298;2022-08-30T12:52:44;13.75;;;4.30;;
57071;SDS011;42956;51.366;11.298;2022-08-30T12:55:14;7.57;;;3.17;;
57071;SDS011;42956;51.366;11.298;2022-08-30T12:57:54;7.93;;;3.70;;
57071;SDS011;42956;51.366;11.298;2022-08-30T13:00:28;7.13;;;3.83;;
57071;SDS011;42956;51.366;11.298;2022-08-30T13:02:57;7.68;;;3.15;;
57071;SDS011;42956;51.366;11.298;2022-08-30T13:05:32;15.45;;;4.15;;
57071;SDS011;42956;51.366;11.298;2022-08-30T13:08:07;5.57;;;3.30;;
57071;SDS011;42956;51.366;11.298;2022-08-30T13:10:46;8.25;;;3.67;;
57071;SDS011;42956;51.366;11.298;2022-08-30T13:13:24;7.65;;;3.55;;
57071;SDS011;42956;51.366;11.298;2022-08-30T13:15:53;5.55;;;2.40;;
57071;SDS011;42956;51.366;11.298;2022-08-30T13:18:23;7.88;;;3.83;;
57071;SDS011;42956;51.366;11.298;2022-08-30T13:21:09;7.13;;;2.97;;
57071;SDS011;42956;51.366;11.298;2022-08-30T13:23:38;7.47;;;2.97;;
57071;SDS011;42956;51.366;11.298;2022-08-30T13:28:47;6.47;;;3.22;;
57071;SDS011;42956;51.366;11.298;2022-08-30T13:31:16;6.88;;;2.88;;
57071;SDS011;42956;51.366;11.298;2022-08-30T13:33:43;5.75;;;2.97;;
57071;SDS011;42956;51.366;11.298;2022-08-30T13:36:13;8.25;;;2.83;;
57071;SDS011;42956;51.366;11.298;2022-08-30T13:38:41;4.80;;;2.83;;
57071;SDS011;42956;51.366;11.298;2022-08-30T13:41:09;8.60;;;2.50;;
57071;SDS011;42956;51.366;11.298;2022-08-30T13:43:37;4.85;;;2.63;;
57071;SDS011;42956;51.366;11.298;2022-08-30T13:46:25;6.32;;;2.58;;
57071;SDS011;42956;51.366;11.298;2022-08-30T13:48:55;6.30;;;2.60;;
57071;SDS011;42956;51.366;11.298;2022-08-30T13:51:28;9.43;;;2.80;;
57071;SDS011;42956;51.366;11.298;2022-08-30T13:53:56;4.57;;;2.97;;
57071;SDS011;42956;51.366;11.298;2022-08-30T13:56:24;6.10;;;2.63;;
57071;SDS011;42956;51.366;11.298;2022-08-30T13:58:57;13.98;;;2.42;;
57071;SDS011;42956;51.366;11.298;2022-08-30T14:01:25;6.00;;;2.53;;
57071;SDS011;42956;51.366;11.298;2022-08-30T14:03:53;6.55;;;2.40;;
57071;SDS011;42956;51.366;11.298;2022-08-30T14:06:43;12.77;;;2.90;;
57071;SDS011;42956;51.366;11.298;2022-08-30T14:09:30;3.42;;;2.53;;
57071;SDS011;42956;51.366;11.298;2022-08-30T14:11:58;5.97;;;2.45;;
57071;SDS011;42956;51.366;11.298;2022-08-30T14:14:26;6.72;;;2.90;;
57071;SDS011;42956;51.366;11.298;2022-08-30T14:17:09;6.68;;;2.65;;
57071;SDS011;42956;51.366;11.298;2022-08-30T14:19:38;8.82;;;2.60;;
57071;SDS011;42956;51.366;11.298;2022-08-30T14:22:10;14.40;;;3.00;;
57071;SDS011;42956;51.366;11.298;2022-08-30T14:24:38;7.40;;;2.60;;
57071;SDS011;42956;51.366;11.298;2022-08-30T14:27:05;5.70;;;2.55;;
57071;SDS011;42956;51.366;11.298;2022-08-30T14:29:33;4.40;;;2.28;;
57071;SDS011;42956;51.366;11.298;2022-08-30T14:32:01;4.57;;;2.78;;
57071;SDS011;42956;51.366;11.298;2022-08-30T14:34:29;5.07;;;2.80;;
57071;SDS011;42956;51.366;11.298;2022-08-30T14:36:58;4.85;;;2.13;;
57071;SDS011;42956;51.366;11.298;2022-08-30T14:39:27;5.18;;;3.25;;
57071;SDS011;42956;51.366;11.298;2022-08-30T14:41:56;5.43;;;2.15;;
57071;SDS011;42956;51.366;11.298;2022-08-30T14:44:29;8.57;;;2.70;;
57071;SDS011;42956;51.366;11.298;2022-08-30T14:47:17;3.25;;;2.88;;
57071;SDS011;42956;51.366;11.298;2022-08-30T14:49:45;2.70;;;2.25;;
57071;SDS011;42956;51.366;11.298;2022-08-30T14:52:13;5.63;;;2.53;;
57071;SDS011;42956;51.366;11.298;2022-08-30T14:54:43;4.80;;;2.83;;
57071;SDS011;42956;51.366;11.298;2022-08-30T14:57:11;3.70;;;2.53;;
57071;SDS011;42956;51.366;11.298;2022-08-30T14:59:39;11.25;;;3.47;;
57071;SDS011;42956;51.366;11.298;2022-08-30T15:02:07;4.90;;;2.25;;
57071;SDS011;42956;51.366;11.298;2022-08-30T15:04:35;3.95;;;2.67;;
57071;SDS011;42956;51.366;11.298;2022-08-30T15:07:03;3.70;;;2.28;;
57071;SDS011;42956;51.366;11.298;2022-08-30T15:09:34;3.95;;;2.22;;
57071;SDS011;42956;51.366;11.298;2022-08-30T15:12:06;4.00;;;2.63;;